METAR Data
IDs: Format: Raw Decoded Include TAF

Data at: 0821 UTC 20 Sep 2018

KFBL 200815Z AUTO 04003KT 5SM RA BKN003 OVC012 16/16 A2997 RMK AO2 P0005 P0005
KFBL 200755Z AUTO 00000KT 7SM RA OVC003 16/16 A2998 RMK AO2 P0003 P0003
KFBL 200735Z AUTO 04005KT 7SM -RA OVC001 16/16 A2996 RMK AO2 P0002 P0002
KFBL 200715Z AUTO 01005KT 4SM RA OVC001 16/16 A2999 RMK AO2 P0001 P0001
KFBL 200655Z AUTO 01005KT 2 1/2SM RA OVC001 16/16 A2998 RMK AO2 P0001 P0001
KFBL 200635Z AUTO 36005KT 1 1/2SM -RA OVC001 16/16 A2999 RMK AO2
KFBL 200615Z AUTO 02003KT 3/4SM -RA OVC001 16/16 A2998 RMK AO2
KFBL 200555Z AUTO 01004KT 1/2SM -RA OVC001 17/16 A2999 RMK AO2
KFBL 200535Z AUTO 36005KT 1/2SM FG OVC001 17/17 A2999 RMK AO2
KFBL 200515Z AUTO 01006KT 1/2SM FG OVC003 17/17 A2998 RMK AO2
KFBL 200455Z AUTO 03004KT 5SM BR OVC003 18/17 A2998 RMK AO2 LTG DSNT SE
KFBL 200435Z AUTO 04004KT 5SM BR OVC003 18/17 A2998 RMK AO2 LTG DSNT SE
KFBL 200415Z AUTO 04003KT 5SM BR OVC003 18/17 A2998 RMK AO2
KFBL 200355Z AUTO 03004KT 5SM BR OVC003 18/17 A2998 RMK AO2
KFBL 200335Z AUTO 36006KT 7SM OVC005 18/17 A2997 RMK AO2
KFBL 200315Z AUTO 36006KT 7SM OVC005 18/17 A2998 RMK AO2
KFBL 200255Z AUTO 02004G14KT 5SM -RA OVC005 18/18 A2997 RMK AO2 LTG DSNT S
KFBL 200235Z AUTO 08007KT 7SM -RA OVC005 18/17 A2993 RMK AO2
KFBL 200215Z AUTO 06006KT 5SM -RA OVC005 18/17 A2996 RMK AO2 LTG DSNT S
KFBL 200155Z AUTO 03005KT 4SM -RA OVC005 18/17 A2999 RMK AO2
KFBL 200135Z AUTO 01005KT 2 1/2SM DZ BKN005 OVC011 18/17 A2999 RMK AO2 LTG DSNT SW
KFBL 200115Z AUTO 35008KT 3SM -RA OVC005 18/17 A3002 RMK AO2 LTG DSNT S
KFBL 200055Z AUTO 34006KT 4SM -RA OVC005 18/17 A3001 RMK AO2
KFBL 200035Z AUTO 34004KT 7SM -RA OVC008 18/18 A3001 RMK AO2
KFBL 200015Z AUTO 36003KT 10SM -RA OVC010 19/18 A2999 RMK AO2 LTG DSNT SW
KFBL 192355Z AUTO 34004KT 10SM OVC010 19/18 A2999 RMK AO2
KFBL 192335Z AUTO 32004KT 10SM BKN008 OVC012 19/18 A2998 RMK AO2
KFBL 192315Z AUTO 00000KT 10SM BKN008 19/18 A2995 RMK AO2
KFBL 192255Z AUTO 10010KT 10SM CLR 19/18 A2990 RMK AO2
KFBL 192235Z AUTO 10009KT 10SM SCT016 SCT055 19/18 A2992 RMK AO2
KFBL 192215Z AUTO 09004KT 10SM RA BKN014 BKN055 19/18 A2996 RMK AO2
KFBL 192155Z AUTO 00000KT 10SM -RA OVC012 19/18 A2999 RMK AO2
KFBL 192135Z AUTO 00000KT 10SM -DZ OVC012 19/18 A2998 RMK AO2
KFBL 192115Z AUTO 05004KT 10SM RA OVC012 19/18 A2997 RMK AO2
KFBL 192055Z AUTO 00000KT 10SM DZ OVC012 19/18 A2999 RMK AO2
KFBL 192035Z AUTO 00000KT 10SM OVC012 19/17 A2999 RMK AO2
KFBL 192015Z AUTO 05004KT 10SM OVC012 19/17 A2994 RMK AO2
KFBL 191955Z AUTO 07005KT 10SM -RA OVC012 19/17 A2994 RMK AO2
KFBL 191935Z AUTO 09006KT 10SM OVC012 19/17 A2995 RMK AO2
KFBL 191915Z AUTO 08005KT 10SM OVC012 19/17 A2995 RMK AO2
KFBL 191855Z AUTO 06005KT 10SM OVC012 19/17 A2998 RMK AO2
KFBL 191835Z AUTO 09005KT 10SM OVC012 19/17 A2998 RMK AO2
KFBL 191815Z AUTO 12007KT 10SM OVC012 20/17 A2999 RMK AO2
KFBL 191755Z AUTO 10005KT 10SM OVC010 20/17 A2999 RMK AO2
KFBL 191735Z AUTO 11008KT 10SM OVC010 19/17 A2998 RMK AO2 LTG DSNT SE
KFBL 191715Z AUTO 10006KT 10SM OVC008 19/17 A2998 RMK AO2
KFBL 191655Z AUTO 09006KT 7SM OVC008 18/17 A3000 RMK AO2
KFBL 191635Z AUTO 05004KT 7SM SCT007 OVC012 18/17 A3003 RMK AO2
KFBL 191616Z AUTO 00000KT 7SM OVC010 18/17 A3005 RMK AO2
KFBL 191555Z AUTO 36003KT 10SM OVC010 18/17 A3005 RMK AO2
KFBL 191535Z AUTO 01006KT 10SM OVC010 18/17 A3004 RMK AO2 LTG DSNT SE
KFBL 191516Z AUTO 05006KT 10SM OVC010 18/17 A3002 RMK AO2 LTG DSNT SE AND NW
KFBL 191515Z AUTO 05006KT 10SM OVC010 18/17 A3002 RMK AO2 LTG DSNT SE AND NW
KFBL 191455Z AUTO 05005KT 10SM OVC010 18/17 A3001 RMK AO2
KFBL 191436Z AUTO 05006KT 10SM OVC010 18/17 A3000 RMK AO2
KFBL 191435Z AUTO 05008KT 10SM OVC010 18/17 A3000 RMK AO2
KFBL 191415Z AUTO 05006KT 7SM OVC010 18/17 A3000 RMK AO2 LTG DSNT SE
KFBL 191355Z AUTO 03004KT 5SM BR OVC012 18/17 A3001 RMK AO2 LTG DSNT SE
KFBL 191336Z AUTO 00000KT 5SM -RA BKN012 OVC050 17/17 A3002 RMK AO2 LTG DSNT SE
KFBL 191335Z AUTO 00000KT 5SM -RA BKN012 OVC050 17/17 A3002 RMK AO2 LTG DSNT SE
KFBL 191315Z AUTO 00000KT 5SM BR SCT016 OVC050 17/17 A3001 RMK AO2 LTG DSNT S
KFBL 191255Z AUTO 00000KT 5SM BR BKN060 OVC080 17/17 A3001 RMK AO2 LTG DSNT S
KFBL 191235Z AUTO 07004KT 5SM BR SCT060 BKN065 17/17 A3000 RMK AO2 LTG DSNT S AND SW
KFBL 191217Z AUTO 00000KT 7SM SCT007 SCT060 BKN065 17/17 A2999 RMK AO2
KFBL 191155Z AUTO 11003KT 7SM OVC060 18/17 A3001 RMK AO2
KFBL 191135Z AUTO 00000KT 7SM BKN060 17/17 A2999 RMK AO2
KFBL 191115Z AUTO 10004KT 7SM SCT007 17/17 A2998 RMK AO2 LTG DSNT SW
KFBL 191055Z AUTO 10004KT 7SM OVC005 17/17 A2997 RMK AO2
KFBL 191035Z AUTO 08003KT 5SM BR OVC005 17/17 A2997 RMK AO2
KFBL 191015Z AUTO 09003KT 5SM BR OVC005 17/16 A2998 RMK AO2
KFBL 190955Z AUTO 09005KT 4SM BR OVC005 17/16 A2996 RMK AO2
KFBL 190935Z AUTO 11005KT 4SM BR OVC005 17/16 A2999 RMK AO2
KFBL 190915Z AUTO 00000KT 4SM BR OVC005 17/16 A2999 RMK AO2 LTG DSNT SW
KFBL 190855Z AUTO 00000KT 5SM BR OVC005 17/16 A2999 RMK AO2
KFBL 190835Z AUTO 07004KT 5SM BR OVC005 17/16 A3000 RMK AO2
KFBL 190815Z AUTO 00000KT 5SM BR OVC005 17/16 A3001 RMK AO2
KFBL 190755Z AUTO 04003KT 5SM BR OVC007 17/16 A3001 RMK AO2
KFBL 190735Z AUTO 02004KT 5SM BR OVC007 17/16 A3001 RMK AO2
KFBL 190715Z AUTO 02003KT 5SM BR SCT007 BKN070 16/16 A3002 RMK AO2
KFBL 190655Z AUTO 00000KT 7SM SCT007 17/16 A3002 RMK AO2
KFBL 190635Z AUTO 10003KT 7SM SCT009 BKN029 BKN060 17/16 A3001 RMK AO2
KFBL 190615Z AUTO 07003KT 7SM OVC027 17/16 A3001 RMK AO2 LTG DSNT NE
KFBL 190555Z AUTO 11003KT 10SM OVC027 17/16 A3001 RMK AO2 LTG DSNT NE
KFBL 190535Z AUTO 00000KT 7SM BKN027 BKN055 17/16 A3001 RMK AO2
KFBL 190515Z AUTO 00000KT 10SM BKN055 17/16 A3001 RMK AO2
KFBL 190455Z AUTO 00000KT 10SM OVC055 17/16 A3000 RMK AO2
KFBL 190435Z AUTO 11005KT 7SM OVC055 17/16 A3000 RMK AO2 LTG DSNT N
KFBL 190415Z AUTO 10005KT 7SM OVC055 17/16 A3000 RMK AO2
KFBL 190355Z AUTO 10003KT 7SM OVC055 17/16 A3001 RMK AO2
KFBL 190335Z AUTO 00000KT 7SM SCT019 BKN055 17/16 A3001 RMK AO2
KFBL 190315Z AUTO 04003KT 7SM BKN019 17/16 A3002 RMK AO2
KFBL 190255Z AUTO 03003KT 7SM SCT008 BKN019 BKN060 17/16 A3001 RMK AO2
KFBL 190235Z AUTO 04003KT 5SM BR BKN008 OVC060 17/16 A3001 RMK AO2
KFBL 190215Z AUTO 03003KT 7SM BKN006 OVC060 17/16 A3000 RMK AO2
KFBL 190155Z AUTO 03005KT 7SM OVC006 17/16 A2999 RMK AO2
KFBL 190135Z AUTO 04006KT 7SM OVC008 17/16 A2999 RMK AO2
KFBL 190115Z AUTO 03004KT 7SM BKN008 OVC013 18/17 A2999 RMK AO2
KFBL 190055Z AUTO 02005KT 7SM SCT010 BKN013 18/17 A2999 RMK AO2
KFBL 190035Z AUTO 04006KT 7SM BKN008 OVC065 18/17 A2999 RMK AO2
KFBL 190015Z AUTO 03005KT 10SM SCT022 OVC065 19/17 A2998 RMK AO2
KFBL 182355Z AUTO 00000KT 10SM BKN022 OVC065 19/17 A2998 RMK AO2
KFBL 182335Z AUTO 00000KT 10SM SCT020 OVC065 20/17 A2998 RMK AO2
KFBL 182315Z AUTO 01003KT 10SM SCT018 OVC065 21/17 A2997 RMK AO2
KFBL 182255Z AUTO 35003KT 10SM SCT018 OVC065 21/17 A2997 RMK AO2
KFBL 182235Z AUTO 36003KT 10SM SCT065 21/17 A2997 RMK AO2
KFBL 182215Z AUTO 33004KT 10SM SCT016 SCT025 21/17 A2996 RMK AO2
KFBL 182155Z AUTO 01006KT 10SM SCT016 OVC025 21/17 A2996 RMK AO2
KFBL 182135Z AUTO 36003KT 10SM SCT021 OVC027 21/17 A2997 RMK AO2
KFBL 182115Z AUTO 36003KT 10SM OVC019 20/17 A2997 RMK AO2
KFBL 182055Z AUTO 32003KT 10SM OVC017 19/17 A2998 RMK AO2
KFBL 182035Z AUTO 00000KT 10SM BKN015 OVC021 20/17 A2998 RMK AO2